Time;durP1;ratioP1;P1;durP2;ratioP2;P2;SDS_P1;SDS_P2;PMS_P1;PMS_P2;Temp;Humidity;BMP_temperature;BMP_pressure;BME280_temperature;BME280_humidity;BME280_pressure;Samples;Min_cycle;Max_cycle;Signal;HPM_P1;HPM_P2
2021/01/08 00:00:49;;;;;;;5.55;3.10;;;17.30;56.90;;;;;;4995361;28;20050;-76
2021/01/08 00:03:15;;;;;;;7.30;2.97;;;17.20;57.50;;;;;;4994892;28;20026;-76
2021/01/08 00:05:42;;;;;;;6.53;3.08;;;17.30;58.10;;;;;;4993156;28;20046;-76
2021/01/08 00:08:08;;;;;;;6.00;3.17;;;17.20;57.20;;;;;;4995716;28;20095;-75
2021/01/08 00:10:35;;;;;;;6.75;3.20;;;17.20;57.70;;;;;;4993124;28;20026;-75
2021/01/08 00:13:01;;;;;;;4.07;3.65;;;17.10;56.40;;;;;;4988173;28;20044;-75
2021/01/08 00:15:27;;;;;;;6.68;3.35;;;17.00;57.10;;;;;;4999332;28;20022;-75
2021/01/08 00:17:54;;;;;;;5.88;4.43;;;17.00;57.10;;;;;;4994578;28;20027;-75
2021/01/08 00:20:20;;;;;;;4.60;3.65;;;17.00;58.40;;;;;;4993641;28;20050;-75
2021/01/08 00:22:47;;;;;;;9.45;4.28;;;17.00;58.20;;;;;;4993921;28;20032;-75
2021/01/08 00:25:13;;;;;;;8.13;4.75;;;16.90;58.50;;;;;;4992366;28;20088;-75
2021/01/08 00:27:40;;;;;;;6.65;4.15;;;17.10;59.80;;;;;;4991538;28;20364;-75
2021/01/08 00:30:07;;;;;;;6.82;4.80;;;17.10;58.40;;;;;;5008427;28;20171;-76
2021/01/08 00:32:34;;;;;;;8.43;4.40;;;16.90;58.30;;;;;;4992153;28;20030;-76
2021/01/08 00:35:00;;;;;;;8.95;5.18;;;16.80;58.40;;;;;;5006792;28;20022;-76
2021/01/08 00:37:27;;;;;;;9.05;5.18;;;16.80;58.90;;;;;;5028304;28;20435;-75
2021/01/08 00:39:53;;;;;;;9.82;4.60;;;16.80;59.00;;;;;;5005479;28;20022;-76
2021/01/08 00:42:20;;;;;;;7.90;3.90;;;16.70;59.30;;;;;;4995591;28;20022;-76
2021/01/08 00:44:46;;;;;;;7.43;4.50;;;16.70;59.00;;;;;;4994396;28;20109;-75
2021/01/08 00:47:12;;;;;;;4.75;3.97;;;16.60;59.30;;;;;;4998034;28;20022;-75
2021/01/08 00:49:39;;;;;;;10.45;4.85;;;16.50;59.20;;;;;;4999334;28;20026;-76
2021/01/08 00:52:05;;;;;;;8.82;4.10;;;16.50;58.90;;;;;;4999728;28;20042;-75
2021/01/08 00:54:32;;;;;;;6.20;4.18;;;16.40;59.10;;;;;;4998460;28;20069;-74
2021/01/08 00:56:58;;;;;;;5.45;4.65;;;16.40;59.30;;;;;;5013392;28;20538;-75
2021/01/08 00:59:24;;;;;;;6.85;4.72;;;16.30;59.40;;;;;;5009642;28;20056;-75
2021/01/08 01:01:51;;;;;;;6.97;3.70;;;16.20;59.40;;;;;;4999937;28;20042;-75
2021/01/08 01:04:17;;;;;;;9.25;4.50;;;16.10;59.50;;;;;;5013984;28;20037;-76
2021/01/08 01:06:44;;;;;;;7.63;4.80;;;16.10;59.90;;;;;;5005189;28;20094;-76
2021/01/08 01:09:10;;;;;;;12.57;4.20;;;16.00;60.80;;;;;;5004490;28;20097;-76
2021/01/08 01:11:39;;;;;;;7.60;4.03;;;16.00;60.80;;;;;;4996374;28;20061;-76
2021/01/08 01:14:06;;;;;;;9.60;4.07;;;15.90;60.40;;;;;;4998900;28;20038;-76
2021/01/08 01:16:33;;;;;;;6.35;3.33;;;15.80;59.90;;;;;;4996975;28;20030;-76
2021/01/08 01:18:59;;;;;;;8.13;3.65;;;15.60;59.90;;;;;;4996797;28;20073;-76
2021/01/08 01:21:27;;;;;;;9.35;3.35;;;15.50;59.80;;;;;;5003995;28;20030;-76
2021/01/08 01:23:55;;;;;;;27.25;4.22;;;15.40;59.80;;;;;;5011757;28;20030;-76
2021/01/08 01:26:21;;;;;;;3.78;3.40;;;15.00;60.30;;;;;;4997775;28;20065;-76
2021/01/08 01:28:47;;;;;;;16.67;4.80;;;14.80;61.10;;;;;;4997771;28;20098;-76
2021/01/08 01:31:14;;;;;;;11.57;4.20;;;14.60;61.50;;;;;;4994671;28;20018;-76
2021/01/08 01:33:41;;;;;;;9.98;4.43;;;14.60;61.80;;;;;;4995783;28;20030;-76
2021/01/08 01:36:09;;;;;;;11.88;5.75;;;14.40;61.80;;;;;;4995323;28;20031;-76
2021/01/08 01:38:36;;;;;;;8.65;4.10;;;14.30;61.90;;;;;;4993433;28;20037;-77
2021/01/08 01:41:04;;;;;;;15.82;4.72;;;14.40;62.00;;;;;;4984869;28;20030;-76
2021/01/08 01:43:31;;;;;;;13.68;4.28;;;14.50;61.40;;;;;;4990790;28;20071;-77
2021/01/08 01:45:57;;;;;;;9.02;5.05;;;14.40;61.40;;;;;;5000991;28;20031;-76
2021/01/08 01:48:24;;;;;;;5.95;4.30;;;14.30;61.40;;;;;;4995367;28;20037;-77
2021/01/08 01:50:52;;;;;;;7.45;5.35;;;14.20;62.10;;;;;;4993899;28;20023;-76
2021/01/08 01:53:19;;;;;;;5.82;4.78;;;14.20;62.00;;;;;;4993093;28;20038;-76
2021/01/08 01:55:47;;;;;;;15.40;4.85;;;14.20;62.00;;;;;;4996681;28;20491;-77
2021/01/08 01:58:15;;;;;;;16.42;5.05;;;14.00;61.80;;;;;;4992728;28;20392;-76
2021/01/08 02:00:42;;;;;;;9.18;5.43;;;14.00;62.30;;;;;;4991605;28;20176;-76
2021/01/08 02:03:23;;;;;;;11.38;6.13;;;13.80;62.40;;;;;;4992888;28;20053;-76
2021/01/08 02:05:54;;;;;;;6.07;5.47;;;13.60;62.70;;;;;;4995690;28;20053;-77
2021/01/08 02:08:26;;;;;;;8.15;6.05;;;13.50;63.30;;;;;;4992050;28;20041;-76
2021/01/08 02:11:12;;;;;;;10.48;5.72;;;13.40;63.60;;;;;;4993546;28;20110;-76
2021/01/08 02:14:00;;;;;;;8.90;5.93;;;13.30;63.80;;;;;;4998054;28;20031;-76
2021/01/08 02:16:31;;;;;;;17.60;5.93;;;13.40;63.80;;;;;;4995612;28;20057;-76
2021/01/08 02:18:58;;;;;;;13.90;5.68;;;13.40;63.50;;;;;;4998463;28;20057;-77
2021/01/08 02:21:33;;;;;;;8.57;6.20;;;13.30;63.50;;;;;;4996060;28;20031;-76
2021/01/08 02:24:11;;;;;;;11.60;5.95;;;13.40;64.20;;;;;;4991961;28;20026;-76
2021/01/08 02:26:37;;;;;;;11.77;5.43;;;13.40;63.70;;;;;;4996129;28;20041;-76
2021/01/08 02:29:04;;;;;;;9.25;6.57;;;13.40;63.70;;;;;;5000729;28;20416;-76
2021/01/08 02:31:31;;;;;;;10.13;5.63;;;13.40;64.10;;;;;;5022597;28;20121;-76
2021/01/08 02:33:57;;;;;;;9.00;5.90;;;13.20;63.90;;;;;;4995467;28;20105;-77
2021/01/08 02:36:26;;;;;;;8.57;6.05;;;13.10;64.20;;;;;;4995428;28;20113;-77
2021/01/08 02:38:54;;;;;;;12.63;5.68;;;12.90;64.80;;;;;;4995076;28;20034;-76
2021/01/08 02:41:22;;;;;;;11.50;5.85;;;12.90;65.00;;;;;;4998218;28;20117;-77
2021/01/08 02:43:49;;;;;;;9.52;4.47;;;12.90;64.70;;;;;;4996824;28;20026;-76
2021/01/08 02:46:16;;;;;;;8.10;4.95;;;12.70;65.60;;;;;;4995903;28;20859;-76
2021/01/08 02:48:42;;;;;;;10.38;4.97;;;12.50;66.30;;;;;;4991413;28;20033;-76
2021/01/08 02:51:10;;;;;;;8.52;5.18;;;12.40;65.80;;;;;;4992262;28;20057;-76
2021/01/08 02:53:38;;;;;;;9.85;5.70;;;12.50;66.20;;;;;;4988448;28;20034;-76
2021/01/08 02:56:19;;;;;;;9.70;4.97;;;12.40;65.70;;;;;;4994430;28;20022;-76
2021/01/08 02:58:47;;;;;;;11.23;5.18;;;12.60;66.30;;;;;;5004043;28;20033;-76
2021/01/08 03:01:14;;;;;;;5.88;5.38;;;12.80;65.90;;;;;;5008486;28;20022;-76
2021/01/08 03:03:40;;;;;;;6.53;5.55;;;12.80;65.80;;;;;;5001716;28;20022;-76
2021/01/08 03:06:07;;;;;;;7.68;5.68;;;12.80;66.40;;;;;;4996815;28;20041;-76
2021/01/08 03:08:34;;;;;;;9.60;5.95;;;12.70;65.90;;;;;;4997426;28;20037;-76
2021/01/08 03:11:07;;;;;;;8.02;6.10;;;12.70;66.10;;;;;;4998498;28;20030;-75
2021/01/08 03:13:35;;;;;;;6.60;4.60;;;12.50;66.40;;;;;;5000708;28;20045;-76
2021/01/08 03:16:01;;;;;;;7.38;5.20;;;12.40;66.50;;;;;;4998849;28;20030;-75
2021/01/08 03:18:27;;;;;;;12.38;5.45;;;12.60;66.90;;;;;;5000113;28;20022;-76
2021/01/08 03:20:54;;;;;;;13.48;6.15;;;12.70;66.50;;;;;;4989028;28;20027;-76
2021/01/08 03:23:20;;;;;;;10.10;5.80;;;12.70;66.10;;;;;;4990938;28;20026;-76
2021/01/08 03:25:47;;;;;;;9.82;6.07;;;12.60;66.50;;;;;;4999246;28;20357;-76
2021/01/08 03:28:15;;;;;;;6.85;6.15;;;12.70;66.70;;;;;;4995326;28;20100;-76
2021/01/08 03:30:41;;;;;;;13.98;5.65;;;12.70;66.50;;;;;;4991536;28;20456;-76
2021/01/08 03:33:07;;;;;;;8.07;5.53;;;12.70;66.80;;;;;;5003392;28;20018;-76
2021/01/08 03:35:34;;;;;;;11.65;5.47;;;12.50;66.60;;;;;;5005746;28;20030;-75
2021/01/08 03:38:00;;;;;;;7.70;6.15;;;12.60;66.70;;;;;;4999344;28;20037;-76
2021/01/08 03:40:26;;;;;;;6.90;6.20;;;12.50;66.60;;;;;;5008459;28;20049;-77
2021/01/08 03:42:53;;;;;;;13.43;6.20;;;12.50;67.10;;;;;;4993827;28;20514;-76
2021/01/08 03:45:19;;;;;;;8.80;5.65;;;12.30;67.00;;;;;;4997595;28;20157;-76
2021/01/08 03:47:46;;;;;;;6.30;5.10;;;12.20;67.30;;;;;;4995179;28;20034;-77
2021/01/08 03:50:12;;;;;;;6.75;5.55;;;12.10;67.50;;;;;;4995634;28;20046;-77
2021/01/08 03:52:38;;;;;;;9.43;5.47;;;12.20;67.60;;;;;;4995093;28;20033;-76
2021/01/08 03:55:05;;;;;;;8.15;5.90;;;12.30;67.60;;;;;;4995106;28;20027;-76
2021/01/08 03:57:32;;;;;;;9.93;5.85;;;12.40;67.40;;;;;;4990622;28;20026;-76
2021/01/08 03:59:58;;;;;;;6.97;4.72;;;12.40;67.00;;;;;;5013418;28;20456;-76
2021/01/08 04:02:25;;;;;;;13.50;5.45;;;12.30;67.30;;;;;;4996095;28;20033;-77
2021/01/08 04:04:51;;;;;;;7.82;6.78;;;12.30;68.10;;;;;;4993777;28;20026;-77
2021/01/08 04:07:17;;;;;;;6.90;5.70;;;12.20;68.10;;;;;;4996720;28;20027;-76
2021/01/08 04:09:44;;;;;;;10.20;5.53;;;12.10;67.90;;;;;;4995656;28;20448;-76
2021/01/08 04:12:10;;;;;;;14.27;5.85;;;12.10;68.20;;;;;;5006227;28;20041;-76
2021/01/08 04:14:37;;;;;;;8.80;5.47;;;12.20;67.70;;;;;;5003747;28;20038;-76
2021/01/08 04:17:03;;;;;;;9.52;5.47;;;12.00;67.50;;;;;;5002558;28;20022;-76
2021/01/08 04:19:29;;;;;;;14.07;7.45;;;11.90;68.10;;;;;;5001727;28;20108;-76
2021/01/08 04:21:56;;;;;;;13.55;5.70;;;12.00;68.50;;;;;;4998628;28;20026;-76
2021/01/08 04:24:22;;;;;;;8.52;5.53;;;11.90;68.00;;;;;;4996375;28;20022;-77
2021/01/08 04:26:49;;;;;;;9.52;5.90;;;11.90;68.50;;;;;;4997446;28;20058;-76
2021/01/08 04:29:15;;;;;;;9.35;5.63;;;11.80;68.40;;;;;;4998143;28;20019;-76
2021/01/08 04:31:42;;;;;;;9.15;5.22;;;11.70;68.60;;;;;;4998641;28;20042;-77
2021/01/08 04:34:08;;;;;;;10.63;5.50;;;11.80;69.00;;;;;;5008484;28;20061;-77
2021/01/08 04:36:35;;;;;;;7.30;5.07;;;11.90;68.50;;;;;;5040496;28;20049;-76
2021/01/08 04:39:02;;;;;;;8.65;5.80;;;11.90;68.50;;;;;;5007203;28;20057;-76
2021/01/08 04:41:30;;;;;;;11.32;6.93;;;12.00;68.60;;;;;;5026865;28;20038;-77
2021/01/08 04:43:57;;;;;;;14.20;6.22;;;12.00;68.50;;;;;;5014398;28;20053;-77
2021/01/08 04:46:29;;;;;;;6.43;5.40;;;12.00;69.00;;;;;;4999087;28;20088;-77
2021/01/08 04:49:07;;;;;;;16.02;5.57;;;11.80;69.10;;;;;;4999659;28;20097;-77
2021/01/08 04:51:37;;;;;;;5.15;4.50;;;11.80;69.20;;;;;;4996338;28;20026;-76
2021/01/08 04:54:04;;;;;;;9.75;4.97;;;11.80;69.40;;;;;;5011468;28;20026;-76
2021/01/08 04:56:54;;;;;;;8.45;5.15;;;11.90;69.40;;;;;;5004685;28;20117;-76
2021/01/08 04:59:20;;;;;;;7.93;4.75;;;11.90;69.40;;;;;;5012420;28;20170;-76
2021/01/08 05:01:47;;;;;;;5.75;5.13;;;11.70;70.10;;;;;;5000564;28;20042;-76
2021/01/08 05:04:13;;;;;;;11.07;5.57;;;11.70;70.70;;;;;;5001152;28;20037;-76
2021/01/08 05:06:40;;;;;;;9.35;5.45;;;11.80;69.80;;;;;;5004105;28;20034;-77
2021/01/08 05:09:06;;;;;;;13.07;6.53;;;11.70;69.80;;;;;;5002963;28;20026;-76
2021/01/08 05:11:32;;;;;;;10.00;5.90;;;11.70;69.80;;;;;;5000073;28;20334;-77
2021/01/08 05:14:01;;;;;;;14.70;5.20;;;11.70;70.50;;;;;;4999651;28;20066;-76
2021/01/08 05:16:30;;;;;;;6.50;5.35;;;11.80;70.20;;;;;;4995116;28;20033;-77
2021/01/08 05:18:59;;;;;;;8.20;5.07;;;11.90;70.10;;;;;;4997450;28;20392;-77
2021/01/08 05:21:27;;;;;;;9.77;4.63;;;12.00;69.90;;;;;;4997015;28;20030;-76
2021/01/08 05:23:55;;;;;;;19.23;4.95;;;12.00;69.90;;;;;;5003319;28;20084;-76
2021/01/08 05:26:22;;;;;;;4.18;3.80;;;12.00;70.30;;;;;;5003396;28;20049;-76
2021/01/08 05:29:01;;;;;;;7.65;4.78;;;11.90;69.70;;;;;;5004009;28;20034;-76
2021/01/08 05:31:30;;;;;;;8.23;4.43;;;11.90;70.10;;;;;;5001286;28;20079;-76
2021/01/08 05:33:57;;;;;;;7.50;4.68;;;11.90;70.00;;;;;;5010899;28;20427;-77
2021/01/08 05:36:24;;;;;;;4.63;3.53;;;11.80;70.40;;;;;;5001977;28;20396;-77
2021/01/08 05:38:59;;;;;;;4.47;4.07;;;11.90;70.30;;;;;;4997856;28;20077;-77
2021/01/08 05:41:30;;;;;;;14.20;4.68;;;11.80;70.20;;;;;;5003192;28;20072;-77
2021/01/08 05:43:58;;;;;;;10.43;4.72;;;11.80;70.40;;;;;;5012545;28;20026;-77
2021/01/08 05:46:25;;;;;;;6.07;5.47;;;11.70;70.80;;;;;;5010651;28;20084;-76
2021/01/08 05:48:53;;;;;;;8.50;5.25;;;11.80;71.30;;;;;;5010238;28;20037;-77
2021/01/08 05:51:22;;;;;;;11.18;5.93;;;11.90;70.70;;;;;;5011361;28;20356;-77
2021/01/08 05:53:51;;;;;;;14.40;5.57;;;11.90;70.70;;;;;;5012937;28;20081;-77
2021/01/08 05:56:19;;;;;;;7.50;5.85;;;12.00;70.10;;;;;;5017685;28;20030;-76
2021/01/08 05:58:46;;;;;;;12.25;6.93;;;12.00;69.90;;;;;;5004429;28;20113;-76
2021/01/08 06:01:13;;;;;;;16.23;7.15;;;11.90;70.50;;;;;;5007176;28;20061;-76
2021/01/08 06:03:41;;;;;;;10.07;5.18;;;11.80;70.00;;;;;;5012362;28;20030;-76
2021/01/08 06:06:09;;;;;;;8.48;5.07;;;11.70;70.30;;;;;;5007503;28;20030;-76
2021/01/08 06:08:49;;;;;;;13.20;5.25;;;11.40;71.00;;;;;;5003287;28;20023;-76
2021/01/08 06:11:21;;;;;;;12.35;5.55;;;11.30;71.90;;;;;;5002081;28;20364;-76
2021/01/08 06:13:52;;;;;;;8.27;6.95;;;11.30;72.00;;;;;;5011556;28;20028;-76
2021/01/08 06:16:20;;;;;;;15.20;7.18;;;11.30;71.80;;;;;;5004845;28;20034;-76
2021/01/08 06:18:49;;;;;;;7.97;6.53;;;11.20;71.60;;;;;;5010682;28;20029;-75
2021/01/08 06:21:17;;;;;;;6.40;4.80;;;11.10;72.00;;;;;;5001960;28;20022;-76
2021/01/08 06:23:48;;;;;;;15.35;7.60;;;11.00;72.30;;;;;;5002325;28;20040;-75
2021/01/08 06:26:19;;;;;;;7.88;5.50;;;11.10;72.30;;;;;;5000333;28;20030;-76
2021/01/08 06:28:48;;;;;;;8.77;4.82;;;11.10;72.20;;;;;;5003831;28;20157;-76
2021/01/08 06:31:23;;;;;;;5.22;4.22;;;11.10;72.30;;;;;;5001211;28;20035;-76
2021/01/08 06:33:55;;;;;;;7.82;4.53;;;11.30;72.40;;;;;;5001614;28;20105;-76
2021/01/08 06:36:32;;;;;;;4.67;4.23;;;11.30;72.40;;;;;;5005024;28;20034;-76
2021/01/08 06:38:59;;;;;;;3.70;3.20;;;11.30;72.30;;;;;;5007477;28;20026;-75
2021/01/08 06:41:26;;;;;;;8.20;3.95;;;11.40;72.70;;;;;;5009626;28;20057;-75
2021/01/08 06:44:05;;;;;;;6.88;3.80;;;11.60;71.80;;;;;;5009962;28;20041;-76
2021/01/08 06:46:35;;;;;;;6.15;4.05;;;11.70;71.20;;;;;;5014196;28;20106;-76
2021/01/08 06:49:04;;;;;;;9.13;4.05;;;11.70;71.30;;;;;;5023796;28;20097;-76
2021/01/08 06:51:38;;;;;;;5.35;4.25;;;11.70;71.00;;;;;;5009993;28;20022;-76
2021/01/08 06:54:06;;;;;;;9.82;3.92;;;11.60;71.50;;;;;;5016376;28;20014;-76
2021/01/08 06:56:37;;;;;;;9.80;4.90;;;11.70;71.60;;;;;;5010212;28;20111;-76
2021/01/08 06:59:07;;;;;;;4.93;3.70;;;11.60;71.70;;;;;;5009559;28;20030;-76
2021/01/08 07:02:05;;;;;;;6.03;4.28;;;11.50;72.10;;;;;;5039526;28;20122;-76
2021/01/08 07:04:32;;;;;;;5.57;3.97;;;11.50;72.10;;;;;;4999419;28;20058;-76
2021/01/08 07:07:02;;;;;;;7.10;3.90;;;11.50;72.30;;;;;;5015601;28;20030;-76
2021/01/08 07:09:39;;;;;;;7.20;4.45;;;11.60;71.90;;;;;;5014954;28;20096;-75
2021/01/08 07:12:07;;;;;;;5.10;3.55;;;11.60;71.70;;;;;;5016486;28;20116;-76
2021/01/08 07:14:38;;;;;;;7.22;4.38;;;11.50;72.00;;;;;;5011673;28;20036;-75
2021/01/08 07:17:15;;;;;;;9.98;4.70;;;11.40;72.30;;;;;;5005611;28;20041;-76
2021/01/08 07:19:45;;;;;;;10.13;4.35;;;11.40;72.80;;;;;;5033728;28;20030;-75
2021/01/08 07:22:22;;;;;;;11.02;5.13;;;11.40;72.30;;;;;;5009461;28;20094;-76
2021/01/08 07:24:49;;;;;;;10.70;3.95;;;11.50;72.70;;;;;;5015990;28;20061;-75
2021/01/08 07:27:20;;;;;;;13.77;4.32;;;11.40;72.40;;;;;;5018492;28;20026;-76
2021/01/08 07:29:55;;;;;;;4.00;3.60;;;11.40;72.50;;;;;;5012391;28;20467;-76
2021/01/08 07:32:35;;;;;;;8.70;4.10;;;11.30;72.70;;;;;;5005087;28;20113;-76
2021/01/08 07:35:25;;;;;;;6.57;3.80;;;11.40;72.70;;;;;;5011251;28;20041;-75
2021/01/08 07:38:03;;;;;;;4.82;3.95;;;11.40;72.60;;;;;;5015008;28;20345;-76
2021/01/08 07:40:48;;;;;;;9.98;3.70;;;11.40;72.70;;;;;;5012699;28;20140;-76
2021/01/08 07:43:16;;;;;;;4.85;3.53;;;11.40;72.90;;;;;;5006443;28;20038;-75
2021/01/08 07:45:53;;;;;;;9.18;4.03;;;11.60;73.50;;;;;;5006996;28;20058;-75
2021/01/08 07:48:39;;;;;;;6.32;3.58;;;11.50;72.30;;;;;;5011603;28;20045;-75
2021/01/08 07:51:13;;;;;;;4.78;3.92;;;11.40;72.70;;;;;;5001750;28;20467;-76
2021/01/08 07:53:45;;;;;;;3.80;3.50;;;11.40;73.00;;;;;;5003289;28;20040;-76
2021/01/08 07:56:14;;;;;;;;;;;11.40;73.10;;;;;;5012048;28;20018;-76
2021/01/08 07:58:43;;;;;;;4.35;3.50;;;11.50;73.40;;;;;;5010157;28;19905;-76
2021/01/08 08:01:10;;;;;;;9.15;4.18;;;11.50;72.90;;;;;;5012461;28;20053;-76
2021/01/08 08:03:37;;;;;;;8.70;3.60;;;11.50;73.10;;;;;;5004800;28;20046;-76
2021/01/08 08:06:05;;;;;;;8.38;4.07;;;11.60;72.70;;;;;;5003878;28;20039;-76
2021/01/08 08:08:32;;;;;;;6.45;4.28;;;11.50;72.90;;;;;;4995974;28;20054;-76
2021/01/08 08:11:08;;;;;;;4.80;4.00;;;11.50;73.00;;;;;;5003084;28;20445;-76
2021/01/08 08:13:36;;;;;;;6.90;4.47;;;11.50;72.90;;;;;;5002321;28;20045;-76
2021/01/08 08:16:03;;;;;;;6.10;4.03;;;11.50;72.70;;;;;;5006787;28;20026;-75
2021/01/08 08:18:30;;;;;;;6.32;3.75;;;11.60;73.10;;;;;;4993995;28;20026;-75
2021/01/08 08:21:10;;;;;;;5.53;4.40;;;11.60;73.00;;;;;;4998590;28;20023;-75
2021/01/08 08:23:37;;;;;;;6.35;4.20;;;11.70;72.80;;;;;;4999414;28;20027;-75
2021/01/08 08:26:05;;;;;;;13.13;4.25;;;11.70;72.70;;;;;;5015384;28;20074;-75
2021/01/08 08:28:32;;;;;;;9.63;4.57;;;11.60;72.90;;;;;;4999108;28;20041;-75
2021/01/08 08:30:59;;;;;;;4.40;3.92;;;11.60;73.00;;;;;;5000218;28;20035;-75
2021/01/08 08:33:26;;;;;;;11.50;4.90;;;11.70;73.30;;;;;;5012266;28;20022;-75
2021/01/08 08:35:52;;;;;;;9.30;5.55;;;11.70;73.30;;;;;;5005907;28;20018;-75
2021/01/08 08:38:19;;;;;;;5.63;4.65;;;11.70;73.30;;;;;;5007071;28;20069;-75
2021/01/08 08:40:45;;;;;;;6.13;4.95;;;11.70;73.10;;;;;;5008520;28;20054;-75
2021/01/08 08:43:21;;;;;;;6.43;4.47;;;11.70;73.30;;;;;;5011596;28;20045;-75
2021/01/08 08:45:47;;;;;;;4.60;4.20;;;11.70;73.30;;;;;;5008646;28;20037;-75
2021/01/08 08:48:14;;;;;;;5.70;4.95;;;11.80;73.30;;;;;;5005445;28;20129;-75
2021/01/08 08:50:45;;;;;;;4.85;4.18;;;11.90;73.10;;;;;;5004373;28;20046;-75
2021/01/08 08:53:14;;;;;;;5.55;4.88;;;11.80;73.30;;;;;;5018491;28;20026;-75
2021/01/08 08:55:41;;;;;;;6.63;4.38;;;11.70;73.40;;;;;;5010599;28;20102;-74
2021/01/08 08:58:13;;;;;;;6.18;4.35;;;11.80;73.50;;;;;;5014432;28;20022;-76
2021/01/08 09:00:41;;;;;;;18.05;5.57;;;11.80;73.20;;;;;;5017757;28;20026;-76
2021/01/08 09:03:21;;;;;;;5.70;4.95;;;12.00;73.30;;;;;;5013901;28;20030;-76
2021/01/08 09:05:49;;;;;;;7.75;4.93;;;12.10;72.20;;;;;;5015819;28;20035;-77
2021/01/08 09:08:27;;;;;;;8.68;4.63;;;12.20;72.10;;;;;;5015518;28;20034;-76
2021/01/08 09:11:10;;;;;;;9.60;5.05;;;12.10;72.20;;;;;;5036514;28;20026;-76
2021/01/08 09:13:53;;;;;;;6.55;4.40;;;12.00;72.80;;;;;;5007854;28;20046;-77
2021/01/08 09:16:34;;;;;;;11.45;5.13;;;11.90;72.90;;;;;;4989187;28;20028;-76
2021/01/08 09:19:08;;;;;;;5.90;4.65;;;12.00;73.30;;;;;;5001991;28;20046;-76
2021/01/08 09:21:48;;;;;;;8.38;5.05;;;12.00;73.10;;;;;;5006038;28;20046;-76
2021/01/08 09:24:41;;;;;;;6.55;5.72;;;12.20;72.80;;;;;;5011412;28;20033;-76
2021/01/08 09:27:10;;;;;;;7.60;5.32;;;12.20;72.60;;;;;;5008858;28;20043;-76
2021/01/08 09:29:38;;;;;;;9.45;6.25;;;12.30;72.90;;;;;;5010886;28;20021;-76
2021/01/08 09:32:06;;;;;;;8.63;4.75;;;12.10;73.40;;;;;;5009938;28;20022;-76
2021/01/08 09:34:34;;;;;;;9.48;5.55;;;12.10;73.60;;;;;;5007905;28;20030;-76
2021/01/08 09:37:15;;;;;;;6.68;5.13;;;12.30;73.60;;;;;;5007509;28;20031;-76
2021/01/08 09:39:43;;;;;;;8.88;5.38;;;12.20;73.50;;;;;;5006568;28;20026;-76
2021/01/08 09:42:11;;;;;;;20.45;7.68;;;12.30;73.70;;;;;;5007708;28;20040;-76
2021/01/08 09:44:40;;;;;;;12.25;5.25;;;12.30;73.30;;;;;;5009965;28;20044;-76
2021/01/08 09:47:16;;;;;;;5.25;4.63;;;12.50;72.90;;;;;;5009598;28;20036;-76
2021/01/08 09:49:43;;;;;;;6.78;4.85;;;12.50;72.90;;;;;;5001241;28;20026;-76
2021/01/08 09:52:12;;;;;;;6.22;5.18;;;12.40;73.30;;;;;;5008545;28;20437;-76
2021/01/08 09:54:49;;;;;;;8.70;5.75;;;12.50;73.70;;;;;;5011769;28;20049;-76
2021/01/08 09:57:34;;;;;;;5.45;4.40;;;12.60;72.40;;;;;;5014385;28;20030;-76
2021/01/08 10:00:03;;;;;;;7.20;3.97;;;12.50;72.80;;;;;;5013923;28;20033;-76
2021/01/08 10:02:48;;;;;;;6.90;4.07;;;12.40;73.40;;;;;;5012577;28;20037;-76
2021/01/08 10:05:20;;;;;;;11.10;4.55;;;12.30;74.00;;;;;;5008473;28;20094;-76
2021/01/08 10:07:48;;;;;;;7.15;4.68;;;12.40;73.80;;;;;;5016323;28;20030;-76
2021/01/08 10:10:35;;;;;;;6.90;4.30;;;12.60;73.60;;;;;;5021312;28;20053;-76
2021/01/08 10:13:01;;;;;;;9.02;5.00;;;12.80;72.40;;;;;;5015320;28;20018;-76
2021/01/08 10:15:36;;;;;;;4.60;4.18;;;12.70;72.10;;;;;;5012211;28;20045;-76
2021/01/08 10:18:12;;;;;;;8.18;4.50;;;12.60;72.70;;;;;;5015374;28;20033;-76
2021/01/08 10:20:48;;;;;;;8.07;4.05;;;12.50;72.80;;;;;;5026434;28;20044;-76
2021/01/08 10:23:17;;;;;;;4.95;4.45;;;12.40;73.10;;;;;;5016590;28;20034;-76
2021/01/08 10:25:44;;;;;;;6.78;4.82;;;12.50;73.40;;;;;;5014347;28;20036;-76
2021/01/08 10:28:18;;;;;;;6.28;5.57;;;12.60;72.80;;;;;;5006569;28;20030;-76
2021/01/08 10:30:46;;;;;;;5.85;5.35;;;12.70;72.50;;;;;;5015853;28;20092;-76
2021/01/08 10:33:13;;;;;;;8.80;4.38;;;12.60;72.50;;;;;;5007565;28;20034;-76
2021/01/08 10:35:46;;;;;;;6.32;4.78;;;12.60;72.80;;;;;;5006776;28;20697;-76
2021/01/08 10:38:12;;;;;;;;;;;12.60;72.70;;;;;;5009379;28;20057;-76
2021/01/08 10:40:38;;;;;;;5.38;4.78;;;12.60;73.10;;;;;;5021363;28;19928;-76
2021/01/08 10:43:04;;;;;;;5.93;5.03;;;12.60;72.90;;;;;;5011938;28;20105;-76
2021/01/08 10:45:31;;;;;;;5.53;5.00;;;12.50;73.30;;;;;;5013493;28;20026;-76
2021/01/08 10:47:57;;;;;;;5.65;4.97;;;12.50;73.30;;;;;;5007260;28;20034;-76
2021/01/08 10:50:24;;;;;;;10.50;4.93;;;12.50;73.30;;;;;;5017282;28;20026;-76
2021/01/08 10:52:51;;;;;;;12.35;4.30;;;12.50;73.30;;;;;;5021161;28;20022;-76
2021/01/08 10:55:17;;;;;;;10.93;6.25;;;12.50;73.30;;;;;;5008571;28;20030;-76
2021/01/08 10:57:43;;;;;;;11.13;4.57;;;12.50;73.20;;;;;;5013287;28;20077;-76
2021/01/08 11:00:11;;;;;;;4.68;4.20;;;12.50;73.30;;;;;;5011280;28;20026;-76
2021/01/08 11:02:38;;;;;;;8.35;3.75;;;12.50;73.40;;;;;;5025386;28;20026;-77
2021/01/08 11:05:05;;;;;;;10.70;4.15;;;12.50;73.70;;;;;;5007389;28;20023;-76
2021/01/08 11:07:34;;;;;;;7.53;5.07;;;12.50;73.80;;;;;;5009387;28;20026;-76
2021/01/08 11:10:02;;;;;;;7.22;3.53;;;12.50;73.50;;;;;;5008778;28;20026;-76
2021/01/08 11:12:31;;;;;;;8.57;5.05;;;12.50;73.80;;;;;;5007880;28;20112;-76
2021/01/08 11:14:58;;;;;;;16.40;5.97;;;12.50;73.70;;;;;;5015054;28;20045;-76
2021/01/08 11:17:25;;;;;;;8.35;5.20;;;12.60;73.40;;;;;;5014059;28;20062;-76
2021/01/08 11:19:51;;;;;;;9.02;4.57;;;12.80;73.00;;;;;;5014322;28;20028;-76
2021/01/08 11:22:18;;;;;;;11.52;5.75;;;12.80;71.80;;;;;;5006417;28;20379;-76
2021/01/08 11:24:44;;;;;;;6.18;4.22;;;12.70;72.30;;;;;;5005687;28;20022;-76
2021/01/08 11:27:10;;;;;;;11.20;4.80;;;12.60;72.80;;;;;;5003629;28;20116;-76
2021/01/08 11:29:37;;;;;;;8.20;5.60;;;12.50;73.40;;;;;;5007247;28;20019;-76
2021/01/08 11:32:07;;;;;;;10.30;6.22;;;12.60;73.30;;;;;;5050317;28;20050;-76
2021/01/08 11:34:34;;;;;;;8.32;7.10;;;12.80;72.80;;;;;;5006012;28;20057;-76
2021/01/08 11:37:00;;;;;;;9.85;6.68;;;12.60;73.50;;;;;;5012772;28;20022;-76
2021/01/08 11:39:27;;;;;;;6.63;5.38;;;12.40;73.70;;;;;;5011742;28;20030;-76
2021/01/08 11:41:56;;;;;;;12.07;6.40;;;12.40;74.20;;;;;;5012981;28;20027;-75
2021/01/08 11:44:24;;;;;;;9.32;6.53;;;12.50;74.10;;;;;;5016509;28;20030;-75
2021/01/08 11:46:51;;;;;;;6.97;5.93;;;12.50;73.70;;;;;;5018977;28;20088;-76
2021/01/08 11:49:18;;;;;;;7.35;5.72;;;12.50;73.70;;;;;;5022011;28;20081;-75
2021/01/08 11:51:46;;;;;;;12.95;5.97;;;12.50;73.90;;;;;;5021141;28;20030;-76
2021/01/08 11:54:12;;;;;;;6.95;5.90;;;12.50;74.00;;;;;;5010570;28;20035;-76
2021/01/08 11:56:40;;;;;;;9.10;5.70;;;12.50;73.90;;;;;;5038573;28;20038;-76
2021/01/08 11:59:06;;;;;;;6.22;5.00;;;12.50;73.70;;;;;;5016378;28;20025;-76
2021/01/08 12:01:33;;;;;;;6.47;5.78;;;12.60;73.70;;;;;;5013059;28;20036;-75
2021/01/08 12:04:00;;;;;;;9.45;6.50;;;12.60;73.60;;;;;;5007871;28;20038;-75
2021/01/08 12:06:29;;;;;;;7.60;5.65;;;12.70;73.40;;;;;;5010030;28;20035;-75
2021/01/08 12:08:56;;;;;;;7.20;6.05;;;12.60;73.50;;;;;;5010089;28;20352;-76
2021/01/08 12:11:24;;;;;;;8.90;5.53;;;12.70;73.10;;;;;;5006899;28;20034;-76
2021/01/08 12:13:51;;;;;;;7.03;6.35;;;12.60;72.90;;;;;;5005839;28;20444;-75
2021/01/08 12:16:27;;;;;;;6.50;5.10;;;12.60;73.10;;;;;;5018787;28;20057;-75
2021/01/08 12:18:54;;;;;;;5.18;4.55;;;12.60;73.00;;;;;;5017937;28;20023;-76
2021/01/08 12:21:22;;;;;;;6.15;5.43;;;12.40;73.40;;;;;;5018982;28;20041;-76
2021/01/08 12:23:50;;;;;;;6.07;5.10;;;12.40;73.60;;;;;;5006368;28;20359;-75
2021/01/08 12:26:20;;;;;;;11.48;6.63;;;12.40;73.70;;;;;;5014756;28;20014;-75
2021/01/08 12:28:47;;;;;;;7.72;5.15;;;12.50;73.20;;;;;;5013967;28;20014;-75
2021/01/08 12:31:14;;;;;;;5.72;4.05;;;12.40;72.90;;;;;;5007598;28;20046;-75
2021/01/08 12:33:43;;;;;;;4.43;3.95;;;12.30;73.00;;;;;;5020212;28;20164;-76
2021/01/08 12:36:10;;;;;;;5.95;4.25;;;12.30;73.00;;;;;;5013262;28;20030;-75
2021/01/08 12:38:36;;;;;;;5.78;5.22;;;12.10;73.40;;;;;;5015433;28;20028;-76
2021/01/08 12:41:03;;;;;;;9.02;4.88;;;12.20;73.00;;;;;;5018816;28;20026;-76
2021/01/08 12:43:29;;;;;;;8.57;5.10;;;11.80;74.30;;;;;;5009625;28;20015;-76
2021/01/08 12:45:56;;;;;;;5.32;4.07;;;11.90;74.00;;;;;;5012373;28;20030;-76
2021/01/08 12:48:22;;;;;;;7.45;6.15;;;11.80;74.00;;;;;;5009499;28;20026;-75
2021/01/08 12:50:49;;;;;;;6.10;5.05;;;11.80;73.80;;;;;;5009191;28;20460;-75
2021/01/08 12:53:15;;;;;;;6.00;4.55;;;11.80;74.00;;;;;;5012411;28;20030;-76
2021/01/08 12:55:41;;;;;;;5.80;4.88;;;11.70;73.80;;;;;;5013064;28;20057;-75